Time;durP1;ratioP1;P1;durP2;ratioP2;P2;SDS_P1;SDS_P2;PMS_P1;PMS_P2;Temp;Humidity;BMP_temperature;BMP_pressure;BME280_temperature;BME280_humidity;BME280_pressure;Samples;Min_cycle;Max_cycle;Signal;HPM_P1;HPM_P2
2023/11/20 00:02:10;;;;;;;30.67;18.92;;;;;;;;;;10472103;28;20403;-94
2023/11/20 00:07:13;;;;;;;32.13;18.83;;;;;;;;;;10475684;28;20414;-90
2023/11/20 00:12:15;;;;;;;30.08;18.38;;;;;;;;;;10464794;28;20430;-93
2023/11/20 00:17:19;;;;;;;31.67;17.67;;;;;;;;;;10470553;28;20542;-94
2023/11/20 00:22:22;;;;;;;29.65;17.20;;;;;;;;;;10467738;28;20503;-94
2023/11/20 00:27:24;;;;;;;27.25;17.20;;;;;;;;;;10485251;28;20451;-94
2023/11/20 00:32:28;;;;;;;28.03;16.80;;;;;;;;;;10488995;28;20453;-93
2023/11/20 00:37:30;;;;;;;26.58;16.20;;;;;;;;;;10480797;28;20480;-93
2023/11/20 00:42:32;;;;;;;27.77;16.40;;;;;;;;;;10472232;28;20502;-93
2023/11/20 00:47:36;;;;;;;27.08;16.02;;;;;;;;;;10480926;28;20451;-93
2023/11/20 00:52:39;;;;;;;24.80;15.00;;;;;;;;;;10492949;28;20820;-93
2023/11/20 00:57:41;;;;;;;25.27;15.70;;;;;;;;;;10484051;28;20458;-93
2023/11/20 01:02:45;;;;;;;25.20;14.87;;;;;;;;;;10476979;28;20476;-93
2023/11/20 01:07:47;;;;;;;25.08;14.75;;;;;;;;;;10472308;28;20520;-93
2023/11/20 01:12:50;;;;;;;22.90;14.73;;;;;;;;;;10472023;28;20423;-92
2023/11/20 01:17:53;;;;;;;26.30;15.05;;;;;;;;;;10473551;28;20460;-93
2023/11/20 01:22:56;;;;;;;24.30;13.70;;;;;;;;;;10479205;28;20480;-93
2023/11/20 01:27:58;;;;;;;21.77;13.23;;;;;;;;;;10468456;28;20415;-93
2023/11/20 01:33:02;;;;;;;21.80;13.30;;;;;;;;;;10471410;28;20418;-90
2023/11/20 01:38:05;;;;;;;21.70;12.73;;;;;;;;;;10480309;28;20480;-91
2023/11/20 01:43:07;;;;;;;21.33;13.07;;;;;;;;;;10474669;28;20723;-94
2023/11/20 01:48:11;;;;;;;22.83;12.90;;;;;;;;;;10487908;28;20413;-92
2023/11/20 01:53:14;;;;;;;19.40;12.30;;;;;;;;;;10478449;28;20408;-93
2023/11/20 01:58:17;;;;;;;18.77;12.57;;;;;;;;;;10472919;28;20432;-91
2023/11/20 02:03:21;;;;;;;22.83;13.23;;;;;;;;;;10463516;28;20906;-93
2023/11/20 02:08:27;;;;;;;22.20;12.82;;;;;;;;;;10478593;28;20452;-93
2023/11/20 02:13:30;;;;;;;19.02;11.45;;;;;;;;;;10485395;28;20448;-93
2023/11/20 02:18:35;;;;;;;22.98;12.55;;;;;;;;;;10491223;28;20468;-92
2023/11/20 02:23:37;;;;;;;17.30;11.03;;;;;;;;;;10474993;28;20922;-93
2023/11/20 02:28:40;;;;;;;19.45;11.60;;;;;;;;;;10479113;28;20452;-94
2023/11/20 02:33:44;;;;;;;18.95;10.50;;;;;;;;;;10479241;28;20438;-93
2023/11/20 02:38:47;;;;;;;19.42;11.40;;;;;;;;;;10486994;28;20915;-93
2023/11/20 02:43:50;;;;;;;15.73;10.73;;;;;;;;;;10490498;28;20407;-91
2023/11/20 02:48:54;;;;;;;18.95;10.43;;;;;;;;;;10485042;28;20474;-93
2023/11/20 02:53:56;;;;;;;16.85;10.27;;;;;;;;;;10476701;28;20462;-92
2023/11/20 02:58:59;;;;;;;15.32;9.60;;;;;;;;;;10487449;28;20481;-93
2023/11/20 03:04:03;;;;;;;15.87;9.53;;;;;;;;;;10480631;28;20449;-93
2023/11/20 03:09:05;;;;;;;16.05;9.38;;;;;;;;;;10496360;28;20447;-93
2023/11/20 03:14:07;;;;;;;15.90;9.45;;;;;;;;;;10461182;28;20450;-93
2023/11/20 03:19:14;;;;;;;16.65;9.60;;;;;;;;;;10473844;28;20771;-93
2023/11/20 03:24:16;;;;;;;15.30;8.88;;;;;;;;;;10482382;28;20413;-92
2023/11/20 03:29:18;;;;;;;17.00;8.37;;;;;;;;;;10480025;28;20409;-92
2023/11/20 03:34:22;;;;;;;14.73;8.65;;;;;;;;;;10476550;28;20454;-93
2023/11/20 03:39:27;;;;;;;15.02;9.18;;;;;;;;;;10515458;28;20450;-93
2023/11/20 03:44:29;;;;;;;15.70;8.85;;;;;;;;;;10509492;28;20446;-92
2023/11/20 03:49:33;;;;;;;14.60;9.10;;;;;;;;;;10476763;28;20447;-92
2023/11/20 03:54:35;;;;;;;13.87;8.20;;;;;;;;;;10478483;28;20423;-93
2023/11/20 03:59:38;;;;;;;16.23;8.38;;;;;;;;;;10500310;28;20464;-93
2023/11/20 04:04:41;;;;;;;14.65;8.30;;;;;;;;;;10484311;28;20421;-92
2023/11/20 04:09:44;;;;;;;15.05;8.45;;;;;;;;;;10478693;28;20936;-93
2023/11/20 04:14:48;;;;;;;13.32;8.02;;;;;;;;;;10469185;28;20404;-92
2023/11/20 04:19:52;;;;;;;12.93;8.00;;;;;;;;;;10420715;28;20468;-92
2023/11/20 04:24:54;;;;;;;13.13;8.05;;;;;;;;;;10423165;28;20447;-92
2023/11/20 04:29:56;;;;;;;14.32;8.20;;;;;;;;;;10443090;28;20410;-93
2023/11/20 04:35:00;;;;;;;12.27;7.23;;;;;;;;;;10432053;28;20411;-92
2023/11/20 04:40:03;;;;;;;15.32;8.10;;;;;;;;;;10441797;28;20406;-93
2023/11/20 04:45:07;;;;;;;13.93;7.68;;;;;;;;;;10442607;28;20424;-93
2023/11/20 04:50:11;;;;;;;14.50;8.93;;;;;;;;;;10427360;28;20397;-93
2023/11/20 04:55:13;;;;;;;13.90;8.57;;;;;;;;;;10428402;28;20509;-93
2023/11/20 05:00:16;;;;;;;11.95;7.10;;;;;;;;;;10439906;28;20490;-90
2023/11/20 05:05:20;;;;;;;11.90;7.72;;;;;;;;;;10435908;28;20503;-93
2023/11/20 05:10:23;;;;;;;11.57;7.30;;;;;;;;;;10424188;28;20464;-93
2023/11/20 05:15:25;;;;;;;14.07;7.73;;;;;;;;;;10456489;28;20403;-93
2023/11/20 05:20:29;;;;;;;11.90;6.90;;;;;;;;;;10471511;28;20460;-92
2023/11/20 05:25:31;;;;;;;11.68;7.00;;;;;;;;;;10478182;28;20482;-92
2023/11/20 05:30:34;;;;;;;12.90;7.57;;;;;;;;;;10485000;28;20415;-93
2023/11/20 05:35:38;;;;;;;10.90;6.95;;;;;;;;;;10485685;28;20472;-92
2023/11/20 05:40:41;;;;;;;12.45;7.28;;;;;;;;;;10484742;28;20506;-91
2023/11/20 05:45:43;;;;;;;12.23;6.90;;;;;;;;;;10472589;28;20417;-94
2023/11/20 05:50:47;;;;;;;16.70;7.93;;;;;;;;;;10462530;28;20460;-92
2023/11/20 05:55:50;;;;;;;16.25;7.78;;;;;;;;;;10457277;28;20410;-93
2023/11/20 06:00:52;;;;;;;16.80;7.50;;;;;;;;;;10471000;28;20423;-92
2023/11/20 06:05:56;;;;;;;13.23;7.40;;;;;;;;;;10482172;28;20414;-93
2023/11/20 06:10:58;;;;;;;13.63;7.78;;;;;;;;;;10471488;28;20537;-93
2023/11/20 06:16:01;;;;;;;14.50;7.20;;;;;;;;;;10476004;28;20405;-93
2023/11/20 06:21:05;;;;;;;12.43;6.70;;;;;;;;;;10482238;28;20458;-93
2023/11/20 06:26:08;;;;;;;14.37;7.23;;;;;;;;;;10477357;28;20415;-93
2023/11/20 06:31:11;;;;;;;11.82;7.35;;;;;;;;;;10466951;28;20480;-93
2023/11/20 06:36:15;;;;;;;14.50;7.90;;;;;;;;;;10490114;28;20516;-93
2023/11/20 06:41:18;;;;;;;13.98;7.70;;;;;;;;;;10473819;28;20461;-91
2023/11/20 06:46:22;;;;;;;15.55;7.72;;;;;;;;;;10486666;28;20452;-93
2023/11/20 06:51:26;;;;;;;16.17;8.40;;;;;;;;;;10477134;28;20919;-90
2023/11/20 06:56:31;;;;;;;16.27;8.32;;;;;;;;;;10455197;28;20431;-90
2023/11/20 07:01:34;;;;;;;14.90;8.50;;;;;;;;;;10464379;28;20454;-90
2023/11/20 07:06:42;;;;;;;16.15;8.98;;;;;;;;;;10466567;28;20410;-90
2023/11/20 07:11:44;;;;;;;21.00;10.95;;;;;;;;;;10475001;28;20402;-90
2023/11/20 07:16:46;;;;;;;17.45;10.25;;;;;;;;;;10486089;28;20421;-90
2023/11/20 07:21:50;;;;;;;18.30;9.43;;;;;;;;;;10487189;28;20429;-91
2023/11/20 07:26:53;;;;;;;17.77;9.47;;;;;;;;;;10476792;28;20511;-91
2023/11/20 07:31:55;;;;;;;15.60;9.75;;;;;;;;;;10505609;28;20417;-89
2023/11/20 07:36:59;;;;;;;19.75;10.32;;;;;;;;;;10475007;28;20461;-90
2023/11/20 07:42:01;;;;;;;24.15;11.10;;;;;;;;;;10487977;28;20463;-91
2023/11/20 07:47:04;;;;;;;35.20;12.20;;;;;;;;;;10484481;28;20574;-90
2023/11/20 07:52:09;;;;;;;21.67;10.75;;;;;;;;;;10474976;28;20935;-90
2023/11/20 07:57:13;;;;;;;21.83;11.23;;;;;;;;;;10490389;28;20498;-90
2023/11/20 08:02:16;;;;;;;20.47;10.87;;;;;;;;;;10490874;28;20398;-91
2023/11/20 08:07:20;;;;;;;23.58;13.27;;;;;;;;;;10477283;28;20765;-91
2023/11/20 08:12:22;;;;;;;18.52;11.52;;;;;;;;;;10479820;28;20444;-90
2023/11/20 08:17:26;;;;;;;21.73;11.60;;;;;;;;;;10482553;28;20447;-89
2023/11/20 08:22:31;;;;;;;20.08;12.18;;;;;;;;;;10480733;28;20765;-89
2023/11/20 08:27:36;;;;;;;21.05;11.50;;;;;;;;;;10477955;28;20460;-86
2023/11/20 08:32:39;;;;;;;18.83;11.30;;;;;;;;;;10491081;28;20445;-90
2023/11/20 08:37:42;;;;;;;21.05;11.93;;;;;;;;;;10470317;28;20491;-90
2023/11/20 08:42:46;;;;;;;20.73;11.48;;;;;;;;;;10473026;28;20859;-90
2023/11/20 08:47:49;;;;;;;21.17;11.90;;;;;;;;;;10482679;28;20513;-90
2023/11/20 08:52:53;;;;;;;18.08;10.73;;;;;;;;;;10474204;28;21012;-90
2023/11/20 08:57:55;;;;;;;24.73;11.02;;;;;;;;;;10470501;28;20462;-90
2023/11/20 09:02:58;;;;;;;20.93;11.40;;;;;;;;;;10471327;28;20463;-89
2023/11/20 09:08:02;;;;;;;17.08;10.75;;;;;;;;;;10477650;28;20506;-90
2023/11/20 09:13:05;;;;;;;16.60;10.03;;;;;;;;;;10499859;22;20438;-79
2023/11/20 09:18:08;;;;;;;17.00;10.77;;;;;;;;;;10509458;28;20540;-80
2023/11/20 09:23:11;;;;;;;17.48;10.43;;;;;;;;;;10509911;28;20543;-79
2023/11/20 09:28:15;;;;;;;18.23;10.57;;;;;;;;;;10511333;28;20435;-79
2023/11/20 09:33:17;;;;;;;16.23;10.47;;;;;;;;;;10509218;28;20959;-80
2023/11/20 09:38:21;;;;;;;16.60;10.60;;;;;;;;;;10508356;28;20460;-80
2023/11/20 09:43:29;;;;;;;16.60;9.63;;;;;;;;;;10503148;28;20410;-79
2023/11/20 09:48:33;;;;;;;18.33;10.57;;;;;;;;;;10503407;28;20963;-80
2023/11/20 09:53:38;;;;;;;19.50;10.55;;;;;;;;;;10503236;28;20503;-79
2023/11/20 09:58:42;;;;;;;15.60;9.67;;;;;;;;;;10501878;28;20459;-80
2023/11/20 10:03:44;;;;;;;16.70;10.07;;;;;;;;;;10507299;28;20409;-80
2023/11/20 10:08:51;;;;;;;16.60;9.90;;;;;;;;;;10506925;28;20441;-80
2023/11/20 10:13:55;;;;;;;20.65;10.10;;;;;;;;;;10502343;28;20915;-80
2023/11/20 10:18:57;;;;;;;17.45;11.15;;;;;;;;;;10504540;28;20503;-80
2023/11/20 10:24:02;;;;;;;16.63;10.93;;;;;;;;;;10502057;28;20467;-80
2023/11/20 10:29:09;;;;;;;18.65;10.30;;;;;;;;;;10501897;28;20464;-80
2023/11/20 10:34:12;;;;;;;16.10;9.18;;;;;;;;;;10493312;28;20954;-80
2023/11/20 10:39:17;;;;;;;16.17;9.53;;;;;;;;;;10490183;28;20511;-80
2023/11/20 10:44:25;;;;;;;17.48;9.57;;;;;;;;;;10489948;28;20418;-80
2023/11/20 10:49:29;;;;;;;16.58;9.48;;;;;;;;;;10494172;28;20429;-80
2023/11/20 10:54:42;;;;;;;30.23;18.30;;;;;;;;;;10490291;28;20838;-81
2023/11/20 10:59:45;;;;;;;19.40;11.45;;;;;;;;;;10489965;28;20515;-80
2023/11/20 11:04:52;;;;;;;21.63;12.03;;;;;;;;;;10490880;28;20782;-81
2023/11/20 11:09:59;;;;;;;20.95;11.65;;;;;;;;;;10496456;28;20661;-80
2023/11/20 11:15:03;;;;;;;22.08;12.85;;;;;;;;;;10492263;28;20439;-81
2023/11/20 11:20:12;;;;;;;37.70;14.50;;;;;;;;;;10489841;28;20457;-80
2023/11/20 11:25:19;;;;;;;24.42;13.45;;;;;;;;;;10493957;28;20469;-80
2023/11/20 11:30:24;;;;;;;24.13;14.77;;;;;;;;;;10490849;28;20433;-81
2023/11/20 11:35:45;;;;;;;22.55;12.95;;;;;;;;;;10488967;28;20491;-80
2023/11/20 11:41:08;;;;;;;21.47;13.70;;;;;;;;;;10492959;28;20845;-80
2023/11/20 11:46:12;;;;;;;24.35;14.10;;;;;;;;;;10501332;28;20758;-81
2023/11/20 11:51:21;;;;;;;21.42;12.82;;;;;;;;;;10500004;28;20426;-81
2023/11/20 11:56:27;;;;;;;20.15;12.27;;;;;;;;;;10514570;28;20394;-80
2023/11/20 12:01:30;;;;;;;20.47;12.90;;;;;;;;;;10513687;28;20493;-80
2023/11/20 12:06:32;;;;;;;22.52;12.70;;;;;;;;;;10515076;28;20455;-80
2023/11/20 12:11:53;;;;;;;23.52;12.93;;;;;;;;;;10511465;28;20442;-81
2023/11/20 12:17:02;;;;;;;20.75;12.82;;;;;;;;;;10511766;28;20492;-81
2023/11/20 12:22:07;;;;;;;27.20;13.48;;;;;;;;;;10501413;28;20480;-80
2023/11/20 12:27:11;;;;;;;23.63;14.65;;;;;;;;;;10503640;28;20445;-80
2023/11/20 12:32:13;;;;;;;21.13;13.50;;;;;;;;;;10494799;28;20823;-80
2023/11/20 12:37:15;;;;;;;23.70;13.50;;;;;;;;;;10506508;28;20453;-80
2023/11/20 12:42:19;;;;;;;21.73;13.80;;;;;;;;;;10508599;28;20529;-79
2023/11/20 12:47:22;;;;;;;24.35;15.88;;;;;;;;;;10500653;28;20983;-80
2023/11/20 12:52:25;;;;;;;23.10;14.60;;;;;;;;;;10496122;28;20446;-80
2023/11/20 12:57:30;;;;;;;23.10;14.27;;;;;;;;;;10500482;28;20396;-81
2023/11/20 13:02:34;;;;;;;21.98;13.77;;;;;;;;;;10501822;28;21084;-80
2023/11/20 13:07:37;;;;;;;26.45;13.77;;;;;;;;;;10503251;28;20437;-80
2023/11/20 13:12:45;;;;;;;22.57;14.20;;;;;;;;;;10494644;28;20574;-80
2023/11/20 13:17:47;;;;;;;24.45;14.73;;;;;;;;;;10502025;28;20497;-79
2023/11/20 13:22:50;;;;;;;25.60;15.00;;;;;;;;;;10501226;28;20538;-79
2023/11/20 13:27:54;;;;;;;27.17;18.07;;;;;;;;;;10493849;28;20854;-81
2023/11/20 13:32:56;;;;;;;29.02;17.08;;;;;;;;;;10503326;28;20430;-80
2023/11/20 13:37:58;;;;;;;41.17;21.92;;;;;;;;;;10507864;28;20483;-81
2023/11/20 13:43:03;;;;;;;24.40;15.18;;;;;;;;;;10502156;28;20896;-81
2023/11/20 13:48:06;;;;;;;23.65;14.65;;;;;;;;;;10505717;28;20402;-80
2023/11/20 13:53:09;;;;;;;26.87;16.83;;;;;;;;;;10508975;28;20940;-80
2023/11/20 13:58:14;;;;;;;23.67;14.90;;;;;;;;;;10504119;28;20820;-80
2023/11/20 14:03:19;;;;;;;29.60;15.73;;;;;;;;;;10497092;28;20545;-81
2023/11/20 14:08:23;;;;;;;28.73;16.42;;;;;;;;;;10502007;28;20398;-80
2023/11/20 14:13:27;;;;;;;27.40;15.77;;;;;;;;;;10502038;28;20418;-80
2023/11/20 14:18:32;;;;;;;25.35;16.00;;;;;;;;;;10501830;28;20782;-80
2023/11/20 14:23:35;;;;;;;24.65;16.25;;;;;;;;;;10496420;28;20497;-80
2023/11/20 14:28:39;;;;;;;29.50;17.10;;;;;;;;;;10505934;28;20440;-80
2023/11/20 14:33:41;;;;;;;28.65;17.52;;;;;;;;;;10506282;28;20406;-80
2023/11/20 14:38:43;;;;;;;28.97;17.43;;;;;;;;;;10501876;28;20406;-80
2023/11/20 14:43:47;;;;;;;28.27;17.80;;;;;;;;;;10503302;28;20450;-80
2023/11/20 14:48:50;;;;;;;28.02;17.35;;;;;;;;;;10499419;28;20406;-80
2023/11/20 14:53:52;;;;;;;33.08;17.77;;;;;;;;;;10499580;28;20881;-80
2023/11/20 14:58:56;;;;;;;27.38;16.77;;;;;;;;;;10496440;28;20406;-80
2023/11/20 15:03:58;;;;;;;98.07;43.50;;;;;;;;;;10499977;28;20444;-81
2023/11/20 15:09:01;;;;;;;39.73;22.60;;;;;;;;;;10503356;28;20404;-80
2023/11/20 15:14:06;;;;;;;26.50;16.33;;;;;;;;;;10496424;28;20433;-81
2023/11/20 15:19:08;;;;;;;27.73;18.40;;;;;;;;;;10509783;28;20436;-81
2023/11/20 15:24:11;;;;;;;80.80;41.95;;;;;;;;;;10503396;28;20490;-80
2023/11/20 15:29:15;;;;;;;36.10;18.07;;;;;;;;;;10506528;28;20437;-80
2023/11/20 15:34:17;;;;;;;35.80;18.58;;;;;;;;;;10515437;28;20442;-80
2023/11/20 15:39:20;;;;;;;42.75;20.27;;;;;;;;;;10498720;28;20410;-81
2023/11/20 15:44:24;;;;;;;50.13;21.40;;;;;;;;;;10497813;28;20491;-80
2023/11/20 15:49:29;;;;;;;38.05;21.50;;;;;;;;;;10504175;28;20505;-81
2023/11/20 15:54:31;;;;;;;30.42;18.63;;;;;;;;;;10507610;28;20437;-80
2023/11/20 15:59:36;;;;;;;35.03;20.13;;;;;;;;;;10507155;28;20438;-80
2023/11/20 16:04:39;;;;;;;32.47;19.43;;;;;;;;;;10506586;28;20428;-81
2023/11/20 16:09:41;;;;;;;35.75;19.25;;;;;;;;;;10503993;28;20903;-80
2023/11/20 16:14:45;;;;;;;44.20;23.15;;;;;;;;;;10509090;28;20494;-81
2023/11/20 16:19:47;;;;;;;37.72;21.00;;;;;;;;;;10511715;28;20507;-81
2023/11/20 16:24:51;;;;;;;42.05;22.05;;;;;;;;;;10517104;28;20489;-80
2023/11/20 16:29:55;;;;;;;38.22;21.23;;;;;;;;;;10512490;28;20432;-85
2023/11/20 16:34:57;;;;;;;40.22;21.98;;;;;;;;;;10512484;28;20447;-81
2023/11/20 16:40:00;;;;;;;39.78;22.08;;;;;;;;;;10506819;28;20511;-82
2023/11/20 16:45:04;;;;;;;41.92;23.73;;;;;;;;;;10510790;28;20453;-81
2023/11/20 16:50:08;;;;;;;44.25;24.23;;;;;;;;;;10519490;28;20424;-82
2023/11/20 16:55:10;;;;;;;52.30;28.10;;;;;;;;;;10510509;28;20469;-80
2023/11/20 17:00:15;;;;;;;52.73;29.07;;;;;;;;;;10505988;28;20461;-80
2023/11/20 17:05:17;;;;;;;48.60;26.52;;;;;;;;;;10510101;28;20397;-79
2023/11/20 17:10:19;;;;;;;42.63;23.08;;;;;;;;;;10500252;28;20448;-79
2023/11/20 17:15:23;;;;;;;39.97;21.33;;;;;;;;;;10502132;28;20448;-80
2023/11/20 17:20:26;;;;;;;37.50;20.20;;;;;;;;;;10511269;28;20499;-80
2023/11/20 17:25:28;;;;;;;40.67;22.83;;;;;;;;;;10504603;28;20964;-80
2023/11/20 17:30:32;;;;;;;35.75;20.92;;;;;;;;;;10502070;28;20468;-80
2023/11/20 17:35:34;;;;;;;37.13;21.85;;;;;;;;;;10507595;28;20492;-80
2023/11/20 17:40:37;;;;;;;39.47;20.85;;;;;;;;;;10515187;28;20534;-79
2023/11/20 17:45:43;;;;;;;39.50;19.92;;;;;;;;;;10508317;28;20444;-80
2023/11/20 17:50:45;;;;;;;42.92;27.05;;;;;;;;;;10503774;28;20483;-80
2023/11/20 17:55:48;;;;;;;37.33;21.85;;;;;;;;;;10503439;28;20532;-79
2023/11/20 18:00:53;;;;;;;35.72;20.77;;;;;;;;;;10516876;28;20461;-79
2023/11/20 18:05:55;;;;;;;38.13;20.95;;;;;;;;;;10487664;28;20896;-80
2023/11/20 18:10:59;;;;;;;39.78;21.80;;;;;;;;;;10501924;28;21244;-79
2023/11/20 18:16:03;;;;;;;39.60;21.65;;;;;;;;;;10508822;28;20440;-79
2023/11/20 18:21:06;;;;;;;43.97;23.27;;;;;;;;;;10501360;28;20457;-79
2023/11/20 18:26:09;;;;;;;41.50;23.92;;;;;;;;;;10502818;28;20446;-79
2023/11/20 18:31:13;;;;;;;45.28;25.55;;;;;;;;;;10504000;28;21004;-79
2023/11/20 18:36:15;;;;;;;52.63;29.52;;;;;;;;;;10496128;28;20438;-80
2023/11/20 18:41:18;;;;;;;46.50;28.00;;;;;;;;;;10489658;28;20527;-79
2023/11/20 18:46:21;;;;;;;52.78;28.48;;;;;;;;;;10493562;28;20447;-78
2023/11/20 18:51:24;;;;;;;62.00;32.73;;;;;;;;;;10496876;28;20516;-78
2023/11/20 18:56:28;;;;;;;56.33;32.50;;;;;;;;;;10508347;28;21233;-79
2023/11/20 19:01:32;;;;;;;64.03;35.00;;;;;;;;;;10505078;28;20454;-79
2023/11/20 19:06:35;;;;;;;51.50;30.05;;;;;;;;;;10493574;28;20866;-79
2023/11/20 19:11:37;;;;;;;50.25;28.88;;;;;;;;;;10498461;28;20504;-79
2023/11/20 19:16:41;;;;;;;63.90;32.80;;;;;;;;;;10495127;28;20475;-79
2023/11/20 19:21:44;;;;;;;60.00;31.02;;;;;;;;;;10495374;28;20528;-79
2023/11/20 19:26:47;;;;;;;54.85;31.30;;;;;;;;;;10495073;28;20444;-80
2023/11/20 19:31:53;;;;;;;52.45;28.10;;;;;;;;;;10492132;28;20481;-78
2023/11/20 19:36:56;;;;;;;48.30;27.55;;;;;;;;;;10508519;28;20458;-78
2023/11/20 19:41:59;;;;;;;49.33;27.88;;;;;;;;;;10504577;28;20515;-78
2023/11/20 19:47:03;;;;;;;46.53;26.47;;;;;;;;;;10493795;28;20445;-79
2023/11/20 19:52:07;;;;;;;49.28;26.90;;;;;;;;;;10486779;28;20449;-78
2023/11/20 19:57:09;;;;;;;44.50;26.13;;;;;;;;;;10485809;28;20499;-78
2023/11/20 20:02:14;;;;;;;45.17;27.10;;;;;;;;;;10486998;28;20440;-78
2023/11/20 20:07:16;;;;;;;48.40;28.60;;;;;;;;;;10485286;28;21304;-78
2023/11/20 20:12:19;;;;;;;45.27;28.07;;;;;;;;;;10488022;28;20476;-78
2023/11/20 20:17:23;;;;;;;51.58;30.23;;;;;;;;;;10495279;28;20515;-82
2023/11/20 20:22:25;;;;;;;41.88;25.77;;;;;;;;;;10490946;28;20507;-81
2023/11/20 20:27:28;;;;;;;46.67;27.45;;;;;;;;;;10490296;28;20437;-80
2023/11/20 20:32:32;;;;;;;45.28;26.73;;;;;;;;;;10487188;28;21122;-81
2023/11/20 20:37:38;;;;;;;56.80;32.50;;;;;;;;;;10487705;28;20500;-80
2023/11/20 20:42:40;;;;;;;57.13;33.40;;;;;;;;;;10494731;28;21044;-81
2023/11/20 20:47:44;;;;;;;51.58;30.85;;;;;;;;;;10488930;28;20448;-80
2023/11/20 20:52:47;;;;;;;48.85;29.38;;;;;;;;;;10484389;28;20501;-81
2023/11/20 20:57:49;;;;;;;46.55;27.92;;;;;;;;;;10493528;28;21207;-80
2023/11/20 21:02:53;;;;;;;43.42;26.13;;;;;;;;;;10495780;28;20456;-80
2023/11/20 21:07:57;;;;;;;41.35;25.05;;;;;;;;;;10489707;28;20503;-81
2023/11/20 21:13:00;;;;;;;39.28;24.52;;;;;;;;;;10487748;28;20967;-81
2023/11/20 21:18:04;;;;;;;38.03;23.40;;;;;;;;;;10487315;28;20913;-80
2023/11/20 21:23:07;;;;;;;36.70;23.20;;;;;;;;;;10489266;28;20556;-80
2023/11/20 21:28:09;;;;;;;34.25;21.13;;;;;;;;;;10485052;28;20898;-80
2023/11/20 21:33:13;;;;;;;37.08;22.73;;;;;;;;;;10502792;28;20430;-79
2023/11/20 21:38:17;;;;;;;36.80;23.23;;;;;;;;;;10485549;28;20444;-78
2023/11/20 21:43:20;;;;;;;38.92;23.52;;;;;;;;;;10484480;28;20460;-79
2023/11/20 21:48:23;;;;;;;38.47;23.50;;;;;;;;;;10498447;28;20877;-79
2023/11/20 21:53:26;;;;;;;38.70;24.67;;;;;;;;;;10495618;28;20447;-78
2023/11/20 21:58:31;;;;;;;35.13;23.35;;;;;;;;;;10486742;28;20575;-78
2023/11/20 22:03:35;;;;;;;39.45;24.35;;;;;;;;;;10485275;28;20510;-78
2023/11/20 22:08:42;;;;;;;36.58;23.60;;;;;;;;;;10491323;28;20971;-78
2023/11/20 22:13:46;;;;;;;40.90;24.70;;;;;;;;;;10499124;28;20746;-78
2023/11/20 22:18:50;;;;;;;42.17;26.13;;;;;;;;;;10501223;28;20712;-79
2023/11/20 22:23:52;;;;;;;37.40;22.97;;;;;;;;;;10508509;28;20457;-79
2023/11/20 22:28:54;;;;;;;36.67;22.15;;;;;;;;;;10503841;28;20444;-79
2023/11/20 22:34:00;;;;;;;35.95;23.05;;;;;;;;;;10496829;28;20446;-79
2023/11/20 22:39:04;;;;;;;39.15;22.63;;;;;;;;;;10506993;28;20517;-79
2023/11/20 22:44:07;;;;;;;39.38;22.42;;;;;;;;;;10516239;28;20919;-79
2023/11/20 22:49:10;;;;;;;38.80;22.23;;;;;;;;;;10505498;28;20486;-79
2023/11/20 22:54:13;;;;;;;36.20;22.00;;;;;;;;;;10505822;28;20465;-79
2023/11/20 22:59:15;;;;;;;32.00;20.80;;;;;;;;;;10508889;28;20404;-78
2023/11/20 23:04:19;;;;;;;36.15;20.85;;;;;;;;;;10495933;28;20490;-78
2023/11/20 23:09:21;;;;;;;33.60;19.38;;;;;;;;;;10492279;28;20511;-79
2023/11/20 23:14:24;;;;;;;32.97;19.48;;;;;;;;;;10492822;28;21161;-79
2023/11/20 23:19:28;;;;;;;31.15;19.23;;;;;;;;;;10504940;28;20396;-79
2023/11/20 23:24:30;;;;;;;30.53;18.87;;;;;;;;;;10500247;28;20514;-79
2023/11/20 23:29:33;;;;;;;30.65;18.75;;;;;;;;;;10502159;28;20470;-79
2023/11/20 23:34:37;;;;;;;29.67;18.13;;;;;;;;;;10504181;28;20408;-79
2023/11/20 23:39:39;;;;;;;30.88;18.23;;;;;;;;;;10509015;28;20408;-78
2023/11/20 23:44:42;;;;;;;28.23;18.17;;;;;;;;;;10509216;28;20505;-80
2023/11/20 23:49:46;;;;;;;29.70;18.05;;;;;;;;;;10509082;28;20929;-79
2023/11/20 23:54:48;;;;;;;27.15;17.95;;;;;;;;;;10503580;28;20402;-79
2023/11/20 23:59:50;;;;;;;30.20;18.50;;;;;;;;;;10507912;28;20425;-79
